Time;durP1;ratioP1;P1;durP2;ratioP2;P2;SDS_P1;SDS_P2;PMS_P1;PMS_P2;Temp;Humidity;BMP_temperature;BMP_pressure;BME280_temperature;BME280_humidity;BME280_pressure;Samples;Min_cycle;Max_cycle;Signal;HPM_P1;HPM_P2
2022/01/25 00:28:26;;;;;;;34.57;20.27;;;;;;;-2.00;100.00;97651.06;5063833;28;20453;-78
2022/01/25 00:33:33;;;;;;;35.80;19.83;;;;;;;-1.90;100.00;97651.63;5060383;28;20491;-79
2022/01/25 00:36:01;;;;;;;32.87;18.33;;;;;;;-1.93;100.00;97659.44;5041517;28;20475;-79
2022/01/25 00:38:27;;;;;;;31.93;17.17;;;;;;;-1.98;100.00;97661.31;5043528;28;20502;-79
2022/01/25 00:40:53;;;;;;;31.77;18.33;;;;;;;-2.02;100.00;97654.56;5035682;28;20500;-79
2022/01/25 00:43:23;;;;;;;31.83;18.60;;;;;;;-2.04;100.00;97659.78;5071684;28;20548;-80
2022/01/25 00:45:53;;;;;;;32.13;18.93;;;;;;;-2.09;100.00;97656.47;5045551;28;20020;-79
2022/01/25 00:48:30;;;;;;;30.87;18.63;;;;;;;-2.09;100.00;97658.22;5057552;28;20466;-81
2022/01/25 00:51:13;;;;;;;34.27;19.43;;;;;;;-2.09;100.00;97664.22;5046974;28;20531;-82
2022/01/25 00:53:57;;;;;;;32.30;18.92;;;;;;;-2.15;100.00;97669.56;5050726;28;20538;-82
2022/01/25 00:56:26;;;;;;;33.88;18.50;;;;;;;-2.10;100.00;97672.00;5063759;28;20025;-82
2022/01/25 00:58:53;;;;;;;32.93;18.97;;;;;;;-2.14;100.00;97666.94;5053143;28;20554;-81
2022/01/25 01:01:20;;;;;;;32.80;16.97;;;;;;;-2.18;100.00;97669.63;5049351;28;20466;-82
2022/01/25 01:03:48;;;;;;;32.17;18.73;;;;;;;-2.22;100.00;97668.06;5057044;28;20599;-82
2022/01/25 01:06:15;;;;;;;33.00;18.80;;;;;;;-2.20;100.00;97672.28;5053268;28;20784;-82
2022/01/25 01:08:41;;;;;;;37.57;22.53;;;;;;;-2.20;100.00;97674.84;5040319;28;20463;-81
2022/01/25 01:11:12;;;;;;;31.50;18.50;;;;;;;-2.21;100.00;97670.59;5050911;28;20503;-82
2022/01/25 01:13:56;;;;;;;30.90;18.03;;;;;;;-2.26;100.00;97672.44;5064835;28;20458;-82
2022/01/25 01:33:05;;;;;;;36.93;18.63;;;;;;;-2.41;100.00;97668.59;5076700;28;20490;-81
2022/01/25 01:36:07;;;;;;;41.57;20.50;;;;;;;-2.45;100.00;97666.16;5082004;28;20481;-82
2022/01/25 01:43:34;;;;;;;39.80;21.93;;;;;;;-2.55;100.00;97670.72;5060086;28;20475;-81
2022/01/25 01:48:41;;;;;;;35.57;19.60;;;;;;;-2.61;100.00;97665.75;5066228;28;20498;-81
2022/01/25 01:51:20;;;;;;;44.73;22.40;;;;;;;-2.66;100.00;97671.03;5051376;28;20481;-81
2022/01/25 01:53:46;;;;;;;35.53;20.17;;;;;;;-2.69;100.00;97672.84;5066872;28;20477;-82
2022/01/25 01:56:12;;;;;;;38.73;20.63;;;;;;;-2.70;100.00;97664.28;5068921;28;20453;-82
2022/01/25 01:58:40;;;;;;;38.50;20.93;;;;;;;-2.80;100.00;97670.56;5056693;28;20494;-80
2022/01/25 02:01:10;;;;;;;38.73;20.23;;;;;;;-2.80;100.00;97668.00;5065641;28;20041;-82
2022/01/25 02:03:36;;;;;;;39.23;20.97;;;;;;;-2.82;100.00;97668.91;5070469;28;20481;-82
2022/01/25 02:06:02;;;;;;;44.90;23.90;;;;;;;-2.85;100.00;97665.56;5065679;28;20846;-82
2022/01/25 02:08:28;;;;;;;37.50;21.07;;;;;;;-2.83;100.00;97662.09;5064233;28;20028;-82
2022/01/25 02:10:55;;;;;;;38.47;22.03;;;;;;;-2.86;100.00;97663.84;5052537;28;20469;-82
2022/01/25 02:13:21;;;;;;;38.83;21.57;;;;;;;-2.87;100.00;97659.59;5051827;28;20038;-82
2022/01/25 02:15:48;;;;;;;43.00;23.10;;;;;;;-2.90;100.00;97658.84;5053116;28;21121;-82
2022/01/25 02:23:44;;;;;;;48.07;24.90;;;;;;;-2.80;100.00;97649.97;5067483;28;20876;-82
2022/01/25 02:26:11;;;;;;;50.93;25.23;;;;;;;-2.83;100.00;97642.31;5049233;28;20445;-81
2022/01/25 02:28:42;;;;;;;51.30;25.27;;;;;;;-2.82;100.00;97636.28;5074476;28;20459;-82
2022/01/25 02:31:09;;;;;;;46.70;23.27;;;;;;;-2.86;100.00;97645.81;5089526;28;20557;-80
2022/01/25 02:33:35;;;;;;;51.30;24.80;;;;;;;-2.90;100.00;97638.25;5047105;28;20454;-81
2022/01/25 02:36:05;;;;;;;49.83;24.20;;;;;;;-2.88;100.00;97634.75;5061250;28;20462;-80
2022/01/25 02:38:33;;;;;;;52.03;23.43;;;;;;;-2.89;100.00;97633.03;5067938;28;20033;-81
2022/01/25 02:41:02;;;;;;;49.10;24.27;;;;;;;-2.90;100.00;97627.94;5054661;28;20471;-81
2022/01/25 02:43:28;;;;;;;47.63;23.17;;;;;;;-2.99;100.00;97629.03;5055978;28;20489;-81
2022/01/25 02:48:31;;;;;;;53.00;23.33;;;;;;;-2.96;100.00;97628.94;5068239;28;20554;-81
2022/01/25 02:51:01;;;;;;;48.27;23.80;;;;;;;-2.99;100.00;97623.03;5052689;28;21067;-81
2022/01/25 02:53:28;;;;;;;44.60;20.80;;;;;;;-2.97;100.00;97618.72;5047979;28;20028;-80
2022/01/25 02:55:55;;;;;;;45.40;23.10;;;;;;;-3.02;100.00;97617.97;5058426;28;20863;-80
2022/01/25 02:58:22;;;;;;;46.03;24.37;;;;;;;-2.97;100.00;97626.44;5035113;28;20467;-81
2022/01/25 03:00:47;;;;;;;48.27;22.43;;;;;;;-2.91;100.00;97621.13;5062184;28;20538;-80
2022/01/25 03:03:13;;;;;;;50.83;21.67;;;;;;;-3.02;100.00;97623.97;5048553;28;20565;-81
2022/01/25 03:05:39;;;;;;;44.03;21.23;;;;;;;-2.98;100.00;97615.28;5046534;28;20031;-81
2022/01/25 03:08:05;;;;;;;48.97;22.13;;;;;;;-3.04;100.00;97614.63;5042645;28;20028;-81
2022/01/25 03:10:40;;;;;;;42.63;20.37;;;;;;;-3.05;100.00;97618.06;5046363;28;20081;-82
2022/01/25 03:13:10;;;;;;;45.20;21.10;;;;;;;-3.01;100.00;97614.53;5046798;28;20116;-81
2022/01/25 03:15:56;;;;;;;42.70;20.57;;;;;;;-3.06;100.00;97618.94;5056876;28;20553;-81
2022/01/25 03:21:35;;;;;;;43.00;21.90;;;;;;;-3.03;100.00;97622.28;5066874;28;20478;-81
2022/01/25 03:24:04;;;;;;;38.88;18.45;;;;;;;-3.05;100.00;97620.63;5045758;28;20470;-81
2022/01/25 03:26:30;;;;;;;42.00;20.70;;;;;;;-3.08;100.00;97614.69;5048948;28;20701;-79
2022/01/25 03:28:56;;;;;;;41.03;20.47;;;;;;;-3.15;100.00;97607.19;5053917;28;20462;-81
2022/01/25 03:31:22;;;;;;;40.70;20.43;;;;;;;-3.13;100.00;97606.25;5045065;28;20032;-81
2022/01/25 03:33:50;;;;;;;37.70;19.13;;;;;;;-3.16;100.00;97601.19;5051395;28;20474;-80
2022/01/25 03:36:17;;;;;;;43.07;20.30;;;;;;;-3.12;100.00;97599.38;5051547;28;20520;-81
2022/01/25 03:38:43;;;;;;;42.57;21.27;;;;;;;-3.18;100.00;97597.00;5047529;28;20457;-81
2022/01/25 03:41:12;;;;;;;33.53;17.17;;;;;;;-3.18;100.00;97599.56;5040155;28;21122;-81
2022/01/25 03:43:38;;;;;;;38.53;18.17;;;;;;;-3.17;100.00;97604.66;5043867;28;20101;-81
2022/01/25 03:46:13;;;;;;;39.13;20.53;;;;;;;-3.20;100.00;97594.44;5050835;28;20818;-81
2022/01/25 03:51:07;;;;;;;34.77;17.97;;;;;;;-3.23;100.00;97602.25;5063293;28;20491;-81
2022/01/25 03:53:33;;;;;;;35.80;17.67;;;;;;;-3.25;100.00;97601.47;5028676;28;20459;-81
2022/01/25 03:56:00;;;;;;;34.97;17.63;;;;;;;-3.28;100.00;97598.13;5038414;28;20024;-81
2022/01/25 03:58:26;;;;;;;35.30;18.03;;;;;;;-3.30;100.00;97602.44;5053511;28;20033;-81
2022/01/25 04:00:52;;;;;;;36.90;19.47;;;;;;;-3.34;100.00;97592.25;5065384;28;20481;-81
2022/01/25 04:03:27;;;;;;;39.73;20.20;;;;;;;-3.28;100.00;97596.38;5045391;28;20064;-81
2022/01/25 04:05:55;;;;;;;35.53;19.43;;;;;;;-3.29;100.00;97588.69;5043080;28;20033;-80
2022/01/25 04:08:22;;;;;;;41.00;19.60;;;;;;;-3.26;100.00;97588.63;5034112;28;21041;-81
2022/01/25 04:10:48;;;;;;;34.67;17.87;;;;;;;-3.25;100.00;97588.59;5038330;28;20486;-82
2022/01/25 04:13:14;;;;;;;35.87;17.37;;;;;;;-3.33;100.00;97590.50;5039683;28;20474;-81
2022/01/25 04:15:43;;;;;;;32.67;16.33;;;;;;;-3.35;100.00;97589.72;5042136;28;20075;-81
2022/01/25 04:20:39;;;;;;;34.90;17.30;;;;;;;-3.37;100.00;97597.47;5079385;28;20497;-78
2022/01/25 04:25:51;;;;;;;37.00;17.00;;;;;;;-3.37;100.00;97591.47;5065589;28;20455;-81
2022/01/25 04:28:17;;;;;;;37.63;17.80;;;;;;;-3.41;100.00;97595.88;5048936;28;20438;-81
2022/01/25 04:30:42;;;;;;;37.27;17.70;;;;;;;-3.37;100.00;97592.31;5046107;28;20055;-80
2022/01/25 04:33:25;;;;;;;32.87;16.70;;;;;;;-3.39;100.00;97593.25;5048534;28;20062;-81
2022/01/25 04:49:33;;;;;;;37.83;17.53;;;;;;;-3.51;100.00;97593.59;5064261;28;20054;-81
2022/01/25 04:52:09;;;;;;;34.03;16.70;;;;;;;-3.44;100.00;97589.97;5051181;28;20493;-79
2022/01/25 04:54:44;;;;;;;33.50;16.93;;;;;;;-3.46;100.00;97576.28;5064520;28;20462;-81
2022/01/25 05:02:30;;;;;;;30.80;15.37;;;;;;;-3.50;100.00;97567.81;5052195;28;20475;-81
2022/01/25 05:05:04;;;;;;;39.20;16.47;;;;;;;-3.48;100.00;97571.19;5065722;28;20478;-81
2022/01/25 05:07:41;;;;;;;33.27;16.13;;;;;;;-3.46;100.00;97568.56;5069541;28;20520;-81
2022/01/25 05:10:08;;;;;;;34.57;17.50;;;;;;;-3.50;100.00;97574.69;5064354;28;20453;-81
2022/01/25 05:12:41;;;;;;;34.60;15.80;;;;;;;-3.49;100.00;97577.19;5052391;28;20459;-81
2022/01/25 05:18:16;;;;;;;;;;;;;;;-3.58;100.00;97573.16;5053566;28;20049;-81
2022/01/25 05:23:30;;;;;;;33.60;16.00;;;;;;;-3.68;100.00;97579.44;5062848;28;20479;-79
2022/01/25 05:25:55;;;;;;;38.77;18.17;;;;;;;-3.67;100.00;97578.53;5074040;28;20454;-81
2022/01/25 05:28:21;;;;;;;34.13;15.77;;;;;;;-3.73;100.00;97594.09;5057702;28;20472;-81
2022/01/25 05:30:47;;;;;;;34.73;16.27;;;;;;;-3.76;100.00;97588.19;5053222;28;20105;-81
2022/01/25 05:33:15;;;;;;;36.13;16.70;;;;;;;-3.79;100.00;97583.97;5064588;28;20024;-81
2022/01/25 05:35:41;;;;;;;37.13;16.90;;;;;;;-3.78;100.00;97588.25;5071299;28;20025;-80
2022/01/25 05:38:08;;;;;;;33.57;15.30;;;;;;;-3.80;100.00;97582.28;5071021;28;20446;-81
2022/01/25 05:40:44;;;;;;;36.30;16.33;;;;;;;-3.77;100.00;97587.38;5074430;28;20066;-80
2022/01/25 05:48:14;;;;;;;40.03;16.80;;;;;;;-3.62;100.00;97594.69;5064973;28;20474;-81
2022/01/25 05:50:40;;;;;;;37.90;17.27;;;;;;;-3.70;100.00;97594.03;5048124;28;20470;-81
2022/01/25 05:53:05;;;;;;;32.23;15.20;;;;;;;-3.63;100.00;97593.00;5039411;28;20475;-80
2022/01/25 05:55:32;;;;;;;41.03;16.83;;;;;;;-3.64;100.00;97596.47;5066939;28;20036;-81
2022/01/25 05:57:58;;;;;;;43.17;18.07;;;;;;;-3.65;100.00;97593.94;5045850;28;20050;-81
2022/01/25 06:00:24;;;;;;;37.73;15.37;;;;;;;-3.62;100.00;97605.00;5052825;28;21023;-81
2022/01/25 06:02:54;;;;;;;38.50;15.30;;;;;;;-3.60;100.00;97599.78;5063750;28;20388;-81
2022/01/25 06:05:20;;;;;;;36.57;14.77;;;;;;;-3.69;100.00;97603.47;5048806;28;20024;-81
2022/01/25 06:07:46;;;;;;;38.13;14.37;;;;;;;-3.61;100.00;97604.09;5079050;28;20735;-81
2022/01/25 06:10:11;;;;;;;35.13;13.63;;;;;;;-3.69;100.00;97606.03;5044187;28;20374;-81
2022/01/25 06:12:42;;;;;;;36.33;15.60;;;;;;;-3.73;100.00;97609.53;5068178;28;20033;-81
2022/01/25 06:15:08;;;;;;;34.53;14.43;;;;;;;-3.78;100.00;97607.97;5071874;28;20508;-80
2022/01/25 06:17:34;;;;;;;39.93;15.70;;;;;;;-3.80;100.00;97608.00;5058866;28;20462;-81
2022/01/25 06:20:00;;;;;;;37.90;14.70;;;;;;;-3.86;100.00;97608.97;5073995;28;20953;-79
2022/01/25 06:22:26;;;;;;;38.57;15.40;;;;;;;-3.88;100.00;97605.63;5075882;28;20036;-80
2022/01/25 06:24:53;;;;;;;37.33;15.20;;;;;;;-3.89;100.00;97613.34;5050013;28;20032;-80
2022/01/25 06:27:18;;;;;;;35.73;14.03;;;;;;;-3.94;100.00;97605.78;5036087;28;20024;-81
2022/01/25 06:29:45;;;;;;;36.77;14.60;;;;;;;-3.93;100.00;97599.75;5042546;28;20527;-81
2022/01/25 06:32:11;;;;;;;35.10;14.37;;;;;;;-3.84;100.00;97598.69;5042811;28;20029;-81
2022/01/25 06:34:37;;;;;;;44.27;15.97;;;;;;;-3.77;100.00;97600.22;5048615;28;20458;-81
2022/01/25 06:37:03;;;;;;;36.47;16.07;;;;;;;-3.77;100.00;97602.78;5063598;28;20470;-81
2022/01/25 06:39:29;;;;;;;37.17;15.43;;;;;;;-3.70;100.00;97601.75;5064333;28;20043;-81
2022/01/25 06:41:55;;;;;;;40.20;16.77;;;;;;;-3.74;100.00;97607.00;5047495;28;20039;-81
2022/01/25 06:44:21;;;;;;;36.40;16.03;;;;;;;-3.75;100.00;97610.47;5061186;28;20055;-81
2022/01/25 06:46:47;;;;;;;36.97;15.47;;;;;;;-3.77;100.00;97614.78;5055438;28;20462;-81
2022/01/25 06:49:14;;;;;;;41.27;17.10;;;;;;;-3.76;100.00;97612.19;5059987;28;20032;-81
2022/01/25 06:51:40;;;;;;;43.40;18.17;;;;;;;-3.81;100.00;97611.47;5035872;28;20353;-81
2022/01/25 06:54:07;;;;;;;38.23;15.60;;;;;;;-3.82;100.00;97622.63;5060992;28;20541;-81
2022/01/25 06:56:33;;;;;;;43.37;16.63;;;;;;;-3.87;100.00;97617.59;5058612;28;20516;-82
2022/01/25 06:58:59;;;;;;;39.67;17.00;;;;;;;-3.84;100.00;97621.81;5057968;28;20465;-81
2022/01/25 07:01:26;;;;;;;41.33;17.47;;;;;;;-3.82;100.00;97630.34;5059678;28;21038;-82
2022/01/25 07:03:52;;;;;;;38.27;17.40;;;;;;;-3.79;100.00;97635.38;5056912;28;20039;-82
2022/01/25 07:06:18;;;;;;;34.57;14.80;;;;;;;-3.82;100.00;97635.47;5068018;28;20458;-82
2022/01/25 07:08:45;;;;;;;35.27;15.97;;;;;;;-3.84;100.00;97638.06;5059266;28;20474;-82
2022/01/25 07:11:12;;;;;;;39.73;15.57;;;;;;;-3.90;100.00;97645.94;5056048;28;20558;-82
2022/01/25 07:13:37;;;;;;;32.97;15.00;;;;;;;-3.92;100.00;97645.13;5043721;28;20475;-82
2022/01/25 07:16:06;;;;;;;33.17;14.30;;;;;;;-3.96;100.00;97643.50;5064045;28;20462;-81
2022/01/25 07:18:32;;;;;;;32.60;14.77;;;;;;;-3.89;100.00;97644.19;5048401;28;20721;-82
2022/01/25 07:20:59;;;;;;;30.97;15.07;;;;;;;-3.87;100.00;97650.16;5069591;28;20462;-82
2022/01/25 07:23:29;;;;;;;33.67;15.57;;;;;;;-3.78;100.00;97643.97;5041398;28;20462;-79
2022/01/25 07:25:55;;;;;;;31.47;15.87;;;;;;;-3.78;100.00;97651.69;5052425;28;20486;-81
2022/01/25 07:28:21;;;;;;;44.53;20.90;;;;;;;-3.76;100.00;97648.16;5067494;28;20487;-82
2022/01/25 07:30:47;;;;;;;50.97;24.40;;;;;;;-3.72;100.00;97652.38;5063805;28;20497;-80
2022/01/25 07:33:13;;;;;;;56.67;27.70;;;;;;;-3.70;100.00;97647.19;5057591;28;20031;-79
2022/01/25 07:35:40;;;;;;;44.37;20.33;;;;;;;-3.68;100.00;97651.41;5069435;28;20045;-81
2022/01/25 07:38:07;;;;;;;37.50;18.83;;;;;;;-3.62;100.00;97647.81;5065269;28;20024;-82
2022/01/25 07:40:36;;;;;;;41.47;18.53;;;;;;;-3.57;100.00;97646.00;5041410;28;20474;-82
2022/01/25 07:43:03;;;;;;;38.63;19.27;;;;;;;-3.53;100.00;97645.03;5052957;28;20454;-81
2022/01/25 07:45:35;;;;;;;34.10;16.10;;;;;;;-3.52;100.00;97640.72;5055719;28;20477;-81
2022/01/25 07:48:03;;;;;;;31.63;15.80;;;;;;;-3.47;100.00;97638.91;5066299;28;20449;-81
2022/01/25 07:50:29;;;;;;;39.47;19.37;;;;;;;-3.46;100.00;97644.00;5078390;28;20485;-81
2022/01/25 07:52:55;;;;;;;45.70;21.10;;;;;;;-3.39;100.00;97640.38;5045764;28;20475;-81
2022/01/25 07:55:22;;;;;;;42.73;20.47;;;;;;;-3.21;100.00;97639.06;5045526;28;20554;-81
2022/01/25 07:57:48;;;;;;;41.30;19.07;;;;;;;-2.98;100.00;97640.19;5056777;28;20025;-81
2022/01/25 08:00:14;;;;;;;37.60;18.60;;;;;;;-2.79;100.00;97636.19;5044571;28;20553;-81
2022/01/25 08:02:41;;;;;;;44.17;20.73;;;;;;;-2.55;100.00;97638.97;5054966;28;20009;-81
2022/01/25 08:05:07;;;;;;;41.03;20.13;;;;;;;-2.33;100.00;97632.31;5074290;28;20850;-81
2022/01/25 08:07:33;;;;;;;37.93;18.40;;;;;;;-2.13;100.00;97629.13;5049305;28;20466;-82
2022/01/25 08:09:59;;;;;;;36.37;17.17;;;;;;;-1.66;100.00;97627.63;5065831;28;20485;-82
2022/01/25 08:12:25;;;;;;;33.83;16.23;;;;;;;-1.20;100.00;97623.50;5055954;28;20032;-83
2022/01/25 08:14:51;;;;;;;34.33;16.70;;;;;;;-0.96;100.00;97623.53;5060241;28;20161;-81
2022/01/25 08:17:17;;;;;;;29.60;13.60;;;;;;;-1.01;100.00;97626.25;5066391;28;20482;-82
2022/01/25 08:19:44;;;;;;;28.90;13.87;;;;;;;-0.63;100.00;97618.06;5069968;28;20037;-82
2022/01/25 08:22:11;;;;;;;26.23;13.53;;;;;;;-0.29;100.00;97620.22;5047447;28;20471;-82
2022/01/25 08:24:36;;;;;;;25.90;13.23;;;;;;;-0.05;100.00;97624.44;5065417;28;20486;-82
2022/01/25 08:27:03;;;;;;;26.53;13.20;;;;;;;0.21;100.00;97618.22;5060074;28;20474;-82
2022/01/25 08:29:29;;;;;;;27.57;14.43;;;;;;;0.31;100.00;97615.28;5066528;28;20032;-82
2022/01/25 08:31:55;;;;;;;25.43;13.50;;;;;;;0.28;100.00;97620.59;5054098;28;20474;-82
2022/01/25 08:34:20;;;;;;;26.13;14.10;;;;;;;0.88;100.00;97618.94;5059685;28;20039;-82
2022/01/25 08:36:46;;;;;;;28.23;14.33;;;;;;;0.79;100.00;97616.75;5056493;28;20458;-83
2022/01/25 08:39:15;;;;;;;25.70;13.57;;;;;;;1.24;100.00;97615.63;5053972;28;20060;-82
2022/01/25 08:41:41;;;;;;;25.97;13.37;;;;;;;1.60;100.00;97610.56;5058993;28;20033;-82
2022/01/25 08:44:08;;;;;;;24.13;12.83;;;;;;;0.97;100.00;97612.50;5065168;28;20454;-82
2022/01/25 08:46:33;;;;;;;23.63;13.73;;;;;;;1.28;100.00;97599.06;5067483;28;20505;-82
2022/01/25 08:49:01;;;;;;;25.77;13.67;;;;;;;1.40;100.00;97608.88;5073636;28;20442;-80
2022/01/25 08:51:27;;;;;;;23.27;12.50;;;;;;;1.53;100.00;97616.94;5053899;28;20032;-80
2022/01/25 08:53:54;;;;;;;21.80;11.83;;;;;;;1.21;100.00;97616.63;5056290;28;20502;-78
2022/01/25 08:56:20;;;;;;;23.23;12.47;;;;;;;3.10;95.17;97605.84;5058986;28;20024;-80
2022/01/25 08:58:46;;;;;;;25.43;12.80;;;;;;;3.34;86.97;97608.91;5057639;28;20520;-80
2022/01/25 09:01:13;;;;;;;23.60;12.43;;;;;;;4.06;83.91;97598.97;5047029;28;20092;-82
2022/01/25 09:03:39;;;;;;;23.17;12.37;;;;;;;4.29;81.45;97600.28;5057981;28;20337;-82
2022/01/25 09:06:05;;;;;;;24.87;13.50;;;;;;;4.97;78.69;97598.06;5078137;28;20053;-82
2022/01/25 09:08:32;;;;;;;24.53;13.03;;;;;;;4.61;80.68;97603.66;5042863;28;20025;-79
2022/01/25 09:11:01;;;;;;;21.87;12.00;;;;;;;4.29;75.67;97611.53;5051792;28;20486;-80
2022/01/25 09:13:30;;;;;;;24.30;12.93;;;;;;;5.42;76.25;97614.47;5077627;28;20039;-80
2022/01/25 09:15:56;;;;;;;20.83;12.37;;;;;;;5.62;72.16;97621.09;5043552;28;20025;-80
2022/01/25 09:18:22;;;;;;;24.57;14.40;;;;;;;5.42;74.06;97624.91;5076458;28;20123;-80
2022/01/25 09:20:49;;;;;;;22.20;13.23;;;;;;;5.20;76.08;97620.16;5046236;28;20032;-81
2022/01/25 09:23:18;;;;;;;22.50;13.00;;;;;;;6.31;71.49;97598.50;5038613;28;20617;-80
2022/01/25 09:25:43;;;;;;;19.67;12.33;;;;;;;6.33;68.30;97592.22;5053797;28;20075;-80
2022/01/25 09:28:12;;;;;;;22.47;12.93;;;;;;;6.11;67.42;97592.78;5039789;28;20056;-80
2022/01/25 09:30:38;;;;;;;24.33;13.80;;;;;;;5.99;69.26;97587.50;5058982;28;20035;-80
2022/01/25 09:33:09;;;;;;;23.40;12.20;;;;;;;6.26;70.46;97582.28;5051419;28;20060;-80
2022/01/25 09:35:35;;;;;;;19.63;11.60;;;;;;;5.95;69.91;97588.63;5067946;28;20028;-80
2022/01/25 09:38:02;;;;;;;20.70;12.00;;;;;;;6.59;65.87;97592.28;5066764;28;20036;-80
2022/01/25 09:40:28;;;;;;;22.63;13.10;;;;;;;5.38;70.36;97600.78;5041790;28;20047;-80
2022/01/25 09:42:56;;;;;;;18.70;10.83;;;;;;;5.25;69.84;97594.63;5067795;28;20086;-80
2022/01/25 09:45:23;;;;;;;22.10;12.87;;;;;;;5.89;67.63;97598.47;5063851;28;20058;-80
2022/01/25 09:47:51;;;;;;;20.73;11.73;;;;;;;6.54;64.16;97600.44;5063338;28;20157;-81
2022/01/25 09:50:18;;;;;;;20.13;11.73;;;;;;;6.68;65.53;97598.72;5049624;28;20042;-80
2022/01/25 09:52:45;;;;;;;20.40;11.80;;;;;;;6.87;62.70;97606.16;5066160;28;20056;-80
2022/01/25 09:55:14;;;;;;;20.80;11.53;;;;;;;7.15;64.31;97605.97;5046236;28;20746;-80
2022/01/25 09:57:40;;;;;;;20.53;12.43;;;;;;;8.18;62.73;97597.00;5053517;28;20063;-80
2022/01/25 10:00:11;;;;;;;20.83;12.47;;;;;;;7.92;60.64;97605.88;5069562;28;20040;-80
2022/01/25 10:05:43;;;;;;;19.60;11.40;;;;;;;8.17;60.81;97590.06;5087038;28;20439;-81
2022/01/25 10:08:13;;;;;;;17.97;11.57;;;;;;;8.70;58.19;97594.97;5082945;28;20039;-80
2022/01/25 10:10:45;;;;;;;19.57;12.63;;;;;;;7.91;60.92;97605.03;5061839;28;20024;-79
2022/01/25 10:13:21;;;;;;;19.90;12.57;;;;;;;7.82;59.71;97604.88;5050445;28;20060;-80
2022/01/25 10:15:49;;;;;;;18.70;12.57;;;;;;;7.17;63.57;97593.59;5043945;28;20036;-80
2022/01/25 10:18:15;;;;;;;18.97;12.30;;;;;;;8.33;60.91;97589.78;5055529;28;20033;-80
2022/01/25 10:20:46;;;;;;;19.97;13.17;;;;;;;8.37;61.55;97593.84;5063768;28;20047;-80
2022/01/25 10:23:31;;;;;;;20.27;13.50;;;;;;;8.43;60.08;97590.00;5083827;28;20048;-80
2022/01/25 10:25:59;;;;;;;17.83;11.07;;;;;;;8.26;59.51;97589.41;5042630;28;20033;-81
2022/01/25 10:28:28;;;;;;;17.53;11.10;;;;;;;8.72;57.85;97593.09;5040075;28;20052;-80
2022/01/25 10:30:59;;;;;;;15.53;10.97;;;;;;;8.31;57.73;97586.44;5068718;28;20096;-80
2022/01/25 10:33:27;;;;;;;19.40;11.07;;;;;;;7.82;59.21;97586.53;5061249;28;20108;-79
2022/01/25 10:35:54;;;;;;;20.30;11.20;;;;;;;7.16;63.65;97593.72;5052513;28;20100;-80
2022/01/25 10:38:28;;;;;;;18.83;12.20;;;;;;;7.69;63.46;97579.53;5062075;28;20067;-80
2022/01/25 10:41:16;;;;;;;16.23;11.33;;;;;;;7.48;62.64;97583.66;5051852;28;20028;-80
2022/01/25 10:43:44;;;;;;;16.07;10.77;;;;;;;7.30;61.97;97578.75;5050594;28;20040;-79
2022/01/25 10:46:25;;;;;;;19.53;13.03;;;;;;;6.26;66.19;97588.31;5046819;28;20025;-79
2022/01/25 10:49:13;;;;;;;18.10;12.07;;;;;;;7.18;65.07;97578.78;5077434;28;20082;-79
2022/01/25 10:51:48;;;;;;;16.60;10.77;;;;;;;7.60;65.39;97572.31;5045130;28;20040;-79
2022/01/25 10:54:26;;;;;;;18.27;10.97;;;;;;;8.17;62.20;97569.09;5058377;28;20036;-80
2022/01/25 10:56:56;;;;;;;17.60;11.87;;;;;;;8.18;60.98;97575.19;5070011;28;20055;-80
2022/01/25 10:59:28;;;;;;;17.17;10.73;;;;;;;8.01;60.49;97568.53;5069355;28;20033;-81
2022/01/25 11:01:57;;;;;;;19.90;12.00;;;;;;;7.59;61.56;97572.44;5069521;28;20519;-79
2022/01/25 11:04:34;;;;;;;18.93;11.60;;;;;;;7.80;61.11;97573.53;5045967;28;20139;-81
2022/01/25 11:07:04;;;;;;;17.63;11.40;;;;;;;8.51;60.26;97569.28;5050291;28;20092;-81
2022/01/25 11:09:39;;;;;;;16.80;11.20;;;;;;;8.09;61.77;97570.63;5051140;28;20525;-80
2022/01/25 11:12:10;;;;;;;17.80;11.47;;;;;;;8.34;61.13;97570.50;5046928;28;20020;-81
2022/01/25 11:14:56;;;;;;;16.03;11.47;;;;;;;7.83;62.46;97575.09;5068312;28;20031;-81
2022/01/25 11:17:26;;;;;;;17.43;10.43;;;;;;;6.98;64.63;97577.50;5067113;28;20040;-81
2022/01/25 11:19:52;;;;;;;18.73;12.37;;;;;;;7.77;62.63;97576.38;5069000;28;20126;-81
2022/01/25 11:22:21;;;;;;;17.90;11.87;;;;;;;7.00;64.99;97573.84;5058559;28;20024;-81
2022/01/25 11:24:57;;;;;;;19.47;11.70;;;;;;;7.42;65.37;97571.00;5056887;28;20036;-79
2022/01/25 11:27:25;;;;;;;19.83;12.27;;;;;;;6.92;66.76;97568.28;5058466;28;20036;-80
2022/01/25 11:29:54;;;;;;;19.90;11.27;;;;;;;7.51;64.27;97565.09;5062803;28;20032;-80
2022/01/25 11:32:24;;;;;;;19.20;12.20;;;;;;;7.78;63.30;97557.13;5063159;28;20192;-81
2022/01/25 11:34:52;;;;;;;18.03;10.97;;;;;;;8.29;60.95;97550.84;5077453;28;20043;-81
2022/01/25 11:37:18;;;;;;;16.97;11.90;;;;;;;7.62;64.97;97557.34;5063850;28;20024;-78
2022/01/25 11:39:47;;;;;;;18.33;13.13;;;;;;;7.37;63.40;97554.78;5041710;28;20047;-80
2022/01/25 11:42:24;;;;;;;18.70;11.23;;;;;;;8.36;61.99;97546.81;5061267;28;20032;-81
2022/01/25 11:44:58;;;;;;;18.03;12.47;;;;;;;8.34;61.62;97549.53;5069219;28;20028;-79
2022/01/25 11:47:31;;;;;;;;;;;;;;;9.06;57.57;97546.78;5057967;28;20048;-80
2022/01/25 11:50:08;;;;;;;16.73;11.10;;;;;;;7.80;61.60;97558.66;5083935;28;19919;-78
2022/01/25 11:52:35;;;;;;;18.13;11.70;;;;;;;7.51;63.17;97555.50;5054041;28;20397;-79
2022/01/25 11:55:16;;;;;;;16.93;11.73;;;;;;;8.48;58.71;97545.91;5048450;28;20042;-80
2022/01/25 11:57:54;;;;;;;17.30;12.03;;;;;;;7.91;60.99;97551.81;5062106;28;20035;-81
2022/01/25 12:00:54;;;;;;;17.00;11.97;;;;;;;8.75;58.27;97545.63;5066995;28;20023;-78
2022/01/25 12:04:22;;;;;;;19.53;12.97;;;;;;;8.35;61.98;97550.34;5078500;28;20062;-78
2022/01/25 12:07:25;;;;;;;21.47;13.30;;;;;;;8.14;63.45;97558.84;5027283;28;20036;-78
2022/01/25 12:10:33;;;;;;;17.87;10.83;;;;;;;8.36;60.85;97552.88;5075166;28;20048;-80
2022/01/25 12:13:26;;;;;;;16.53;12.00;;;;;;;8.62;61.73;97556.22;5067414;28;20083;-78
2022/01/25 12:16:20;;;;;;;16.77;11.13;;;;;;;8.54;61.17;97552.50;5073910;28;20044;-78
2022/01/25 12:18:59;;;;;;;20.38;12.40;;;;;;;8.09;62.74;97552.28;5072479;28;20047;-78
2022/01/25 12:21:50;;;;;;;17.33;11.60;;;;;;;8.93;60.55;97553.91;5067587;28;20040;-78
2022/01/25 12:24:20;;;;;;;17.77;12.27;;;;;;;8.60;62.56;97549.41;5061096;28;20047;-79
2022/01/25 12:27:27;;;;;;;20.20;12.43;;;;;;;8.56;62.01;97540.94;5068374;28;20043;-78
2022/01/25 12:30:08;;;;;;;18.90;12.40;;;;;;;8.44;61.19;97550.53;5051181;28;20036;-79
2022/01/25 12:32:36;;;;;;;18.43;13.03;;;;;;;8.74;61.45;97542.19;5053949;28;20037;-80
2022/01/25 12:35:19;;;;;;;18.00;12.93;;;;;;;8.73;60.71;97530.03;5051944;28;20044;-80
2022/01/25 12:37:54;;;;;;;17.50;12.43;;;;;;;8.54;61.36;97534.13;5050901;28;20036;-81
2022/01/25 12:40:26;;;;;;;22.23;14.20;;;;;;;8.23;62.49;97531.97;5058860;28;20049;-80
2022/01/25 12:43:01;;;;;;;18.40;12.27;;;;;;;8.20;62.02;97534.81;5066697;28;20058;-80
2022/01/25 12:45:43;;;;;;;19.67;12.23;;;;;;;8.27;62.69;97525.56;5056198;28;20063;-80
2022/01/25 12:48:21;;;;;;;18.53;12.30;;;;;;;7.83;64.94;97527.97;5055734;28;20503;-81
2022/01/25 12:50:51;;;;;;;23.00;13.17;;;;;;;8.22;62.42;97525.06;5051521;28;20138;-79
2022/01/25 12:53:24;;;;;;;18.10;12.37;;;;;;;8.01;63.73;97516.16;5092060;28;20035;-80
2022/01/25 12:55:54;;;;;;;21.83;13.87;;;;;;;8.40;62.25;97507.16;5074090;28;20036;-80
2022/01/25 12:58:22;;;;;;;21.23;13.67;;;;;;;8.09;62.26;97511.19;5046148;28;20031;-81
2022/01/25 13:00:51;;;;;;;18.90;12.73;;;;;;;8.32;62.84;97496.41;5069607;28;20457;-80
2022/01/25 13:03:29;;;;;;;16.63;12.47;;;;;;;8.35;63.25;97503.16;5060700;28;20110;-81
2022/01/25 13:06:08;;;;;;;19.20;13.13;;;;;;;8.09;63.62;97508.56;5076790;28;20024;-80
2022/01/25 13:08:42;;;;;;;18.27;12.27;;;;;;;8.71;62.13;97508.31;5066069;28;20044;-80
2022/01/25 13:16:50;;;;;;;20.07;13.10;;;;;;;7.57;66.03;97499.22;5088007;28;20052;-80
2022/01/25 13:19:34;;;;;;;17.77;12.13;;;;;;;7.70;66.68;97497.41;5077588;28;20071;-80
2022/01/25 13:22:04;;;;;;;;;;;;;;;8.08;63.71;97493.81;5062610;28;20040;-79